Time;durP1;ratioP1;P1;durP2;ratioP2;P2;SDS_P1;SDS_P2;PMS_P1;PMS_P2;Temp;Humidity;BMP_temperature;BMP_pressure;BME280_temperature;BME280_humidity;BME280_pressure;Samples;Min_cycle;Max_cycle;Signal;HPM_P1;HPM_P2
2022/09/14 00:01:31;;;;;;;16.33;8.77;;;;;;;-144.48;100.00;62369.91;4990784;28;20030;-65
2022/09/14 00:04:02;;;;;;;19.02;9.10;;;;;;;-144.48;100.00;62369.91;4989831;28;20263;-67
2022/09/14 00:06:29;;;;;;;18.83;8.68;;;;;;;-144.48;100.00;62369.91;4989124;28;20022;-66
2022/09/14 00:08:57;;;;;;;14.27;8.98;;;;;;;-144.48;100.00;62369.91;4992051;28;20034;-67
2022/09/14 00:11:24;;;;;;;11.50;7.70;;;;;;;-144.48;100.00;62369.91;4991920;28;20022;-66
2022/09/14 00:13:50;;;;;;;14.48;8.52;;;;;;;-144.48;100.00;62369.91;4991449;28;20053;-65
2022/09/14 00:16:21;;;;;;;14.98;8.75;;;;;;;-144.48;100.00;62369.91;4990944;28;20026;-64
2022/09/14 00:18:57;;;;;;;18.13;8.75;;;;;;;-144.48;100.00;62369.91;4993748;28;20137;-65
2022/09/14 00:21:24;;;;;;;14.15;8.40;;;;;;;-144.48;100.00;62369.91;4990164;28;20034;-67
2022/09/14 00:23:49;;;;;;;15.45;9.07;;;;;;;-144.48;100.00;62369.91;4991405;28;20022;-68
2022/09/14 00:26:17;;;;;;;15.45;8.32;;;;;;;-144.48;100.00;62369.91;4991046;28;20377;-66
2022/09/14 00:28:46;;;;;;;17.02;8.93;;;;;;;-144.48;100.00;62369.91;4991260;28;20034;-67
2022/09/14 00:31:12;;;;;;;14.68;8.05;;;;;;;-144.48;100.00;62369.91;4990901;28;20030;-66
2022/09/14 00:33:39;;;;;;;16.80;9.40;;;;;;;-144.48;100.00;62369.91;4991063;28;20466;-67
2022/09/14 00:36:09;;;;;;;17.38;9.10;;;;;;;-144.48;100.00;62369.91;4989195;28;20032;-67
2022/09/14 00:38:35;;;;;;;15.82;8.77;;;;;;;-144.48;100.00;62369.91;4990503;28;21042;-67
2022/09/14 00:41:02;;;;;;;15.23;8.40;;;;;;;-144.48;100.00;62369.91;4989718;28;20677;-65
2022/09/14 00:43:28;;;;;;;11.73;7.15;;;;;;;-144.48;100.00;62369.91;4990919;28;20038;-65
2022/09/14 00:45:53;;;;;;;17.40;8.20;;;;;;;-144.48;100.00;62369.91;4992059;28;20018;-67
2022/09/14 00:48:23;;;;;;;11.77;7.88;;;;;;;-144.48;100.00;62369.91;4990820;28;20068;-65
2022/09/14 00:50:49;;;;;;;12.57;7.50;;;;;;;-144.48;100.00;62369.91;4990886;28;20095;-67
2022/09/14 00:53:14;;;;;;;14.18;7.18;;;;;;;-144.48;100.00;62369.91;4990464;28;20390;-64
2022/09/14 00:55:40;;;;;;;14.85;7.72;;;;;;;-144.48;100.00;62369.91;4991707;28;20045;-65
2022/09/14 00:58:05;;;;;;;20.48;8.15;;;;;;;-144.48;100.00;62369.91;4980769;28;20026;-66
2022/09/14 01:00:31;;;;;;;13.98;8.32;;;;;;;-144.48;100.00;62369.91;4991022;28;20158;-66
2022/09/14 01:02:56;;;;;;;16.17;9.45;;;;;;;-144.48;100.00;62369.91;4990581;28;20375;-65
2022/09/14 01:05:33;;;;;;;15.27;8.40;;;;;;;-144.48;100.00;62369.91;4989802;28;20037;-68
2022/09/14 01:08:01;;;;;;;11.70;7.50;;;;;;;-144.48;100.00;62369.91;4989261;28;20018;-64
2022/09/14 01:10:32;;;;;;;16.77;8.65;;;;;;;-144.48;100.00;62369.91;4990851;28;20499;-68
2022/09/14 01:13:27;;;;;;;15.52;8.13;;;;;;;-144.48;100.00;62369.91;4989296;28;20026;-64
2022/09/14 01:15:58;;;;;;;16.63;8.90;;;;;;;-144.48;100.00;62369.91;4985352;28;20045;-65
2022/09/14 01:18:32;;;;;;;16.33;8.85;;;;;;;-144.48;100.00;62369.91;4989852;28;20074;-64
2022/09/14 01:21:08;;;;;;;13.75;8.77;;;;;;;-144.48;100.00;62369.91;4989004;28;20026;-63
2022/09/14 01:23:53;;;;;;;18.02;9.70;;;;;;;-144.48;100.00;62369.91;4989242;28;20118;-66
2022/09/14 01:26:55;;;;;;;13.38;8.68;;;;;;;-144.48;100.00;62369.91;4980013;28;20034;-66
2022/09/14 01:29:34;;;;;;;15.70;8.90;;;;;;;-144.48;100.00;62369.91;4985243;28;20472;-66
2022/09/14 01:32:17;;;;;;;15.10;8.55;;;;;;;-144.48;100.00;62369.91;4986360;28;20034;-65
2022/09/14 01:35:08;;;;;;;16.05;8.73;;;;;;;-144.48;100.00;62369.91;4985763;28;20041;-67
2022/09/14 01:37:48;;;;;;;18.23;8.68;;;;;;;-144.48;100.00;62369.91;4979162;28;20022;-63
2022/09/14 01:40:34;;;;;;;14.65;8.50;;;;;;;-144.48;100.00;62369.91;4989966;28;20030;-68
2022/09/14 01:43:09;;;;;;;15.80;8.93;;;;;;;-144.48;100.00;62369.91;4989969;28;20333;-67
2022/09/14 01:45:42;;;;;;;17.75;8.60;;;;;;;-144.48;100.00;62369.91;4979863;28;20027;-67
2022/09/14 01:48:11;;;;;;;16.38;8.43;;;;;;;-144.48;100.00;62369.91;4989193;28;20040;-65
2022/09/14 01:50:43;;;;;;;12.63;8.07;;;;;;;-144.48;100.00;62369.91;4990599;28;20034;-67
2022/09/14 01:53:14;;;;;;;19.58;8.70;;;;;;;-144.48;100.00;62369.91;4989281;28;20673;-64
2022/09/14 01:55:45;;;;;;;13.95;7.38;;;;;;;-144.48;100.00;62369.91;4989541;28;20030;-65
2022/09/14 01:58:35;;;;;;;14.38;7.00;;;;;;;-144.48;100.00;62369.91;4989334;28;20692;-65
2022/09/14 02:01:04;;;;;;;13.40;6.50;;;;;;;-144.48;100.00;62369.91;4989039;28;20598;-64
2022/09/14 02:03:37;;;;;;;12.38;6.07;;;;;;;-144.48;100.00;62369.91;4989779;28;20109;-66
2022/09/14 02:06:18;;;;;;;15.88;7.03;;;;;;;-144.48;100.00;62369.91;4986578;28;20117;-66
2022/09/14 02:08:43;;;;;;;12.57;6.95;;;;;;;-144.48;100.00;62369.91;4989865;28;20069;-67
2022/09/14 02:11:09;;;;;;;17.50;6.38;;;;;;;-144.48;100.00;62369.91;4987796;28;20046;-65
2022/09/14 02:13:34;;;;;;;13.60;5.60;;;;;;;-144.48;100.00;62369.91;4990305;28;20038;-67
2022/09/14 02:15:59;;;;;;;13.55;5.80;;;;;;;-144.48;100.00;62369.91;4989419;28;20080;-65
2022/09/14 02:18:25;;;;;;;11.57;6.55;;;;;;;-144.48;100.00;62369.91;4989126;28;20030;-65
2022/09/14 02:21:02;;;;;;;14.85;5.95;;;;;;;-144.48;100.00;62369.91;4987589;28;20500;-66
2022/09/14 02:23:29;;;;;;;14.93;6.32;;;;;;;-144.48;100.00;62369.91;4990052;28;20053;-67
2022/09/14 02:25:54;;;;;;;12.95;6.15;;;;;;;-144.48;100.00;62369.91;4986878;28;20033;-68
2022/09/14 02:28:20;;;;;;;13.65;6.53;;;;;;;-144.48;100.00;62369.91;4989008;28;20053;-65
2022/09/14 02:31:06;;;;;;;13.25;5.90;;;;;;;-144.48;100.00;62369.91;4988431;28;20026;-67
2022/09/14 02:33:55;;;;;;;12.48;6.22;;;;;;;-144.48;100.00;62369.91;4982430;28;20022;-65
2022/09/14 02:36:41;;;;;;;13.02;5.90;;;;;;;-144.48;100.00;62369.91;4986244;28;20033;-66
2022/09/14 02:39:21;;;;;;;13.48;5.95;;;;;;;-144.48;100.00;62369.91;4979115;28;20496;-66
2022/09/14 02:41:53;;;;;;;11.90;5.05;;;;;;;-144.48;100.00;62369.91;4989126;28;20026;-66
2022/09/14 02:45:06;;;;;;;13.85;5.55;;;;;;;-144.48;100.00;62369.91;4988730;28;20085;-64
2022/09/14 02:47:40;;;;;;;19.98;6.05;;;;;;;-144.48;100.00;62369.91;4979511;28;20097;-66
2022/09/14 02:50:26;;;;;;;10.55;5.95;;;;;;;-144.48;100.00;62369.91;4987154;28;20153;-64
2022/09/14 02:52:54;;;;;;;15.25;5.15;;;;;;;-144.48;100.00;62369.91;4988059;28;20113;-64
2022/09/14 02:55:24;;;;;;;8.98;5.18;;;;;;;-144.48;100.00;62369.91;4989056;28;20451;-65
2022/09/14 02:58:03;;;;;;;11.80;5.25;;;;;;;-144.48;100.00;62369.91;4987100;28;20045;-64
2022/09/14 03:00:31;;;;;;;10.30;5.80;;;;;;;-144.48;100.00;62369.91;4980794;28;20028;-66
2022/09/14 03:02:57;;;;;;;9.38;4.72;;;;;;;-144.48;100.00;62369.91;4989154;28;20100;-66
2022/09/14 03:05:23;;;;;;;8.68;5.25;;;;;;;-144.48;100.00;62369.91;4988937;28;20026;-65
2022/09/14 03:07:48;;;;;;;12.27;5.25;;;;;;;-144.48;100.00;62369.91;4987430;28;20054;-67
2022/09/14 03:10:13;;;;;;;18.13;5.18;;;;;;;-144.48;100.00;62369.91;4993130;28;20026;-64
2022/09/14 03:12:39;;;;;;;12.93;5.53;;;;;;;-144.48;100.00;62369.91;4992674;28;20042;-67
2022/09/14 03:15:05;;;;;;;9.23;4.35;;;;;;;-144.48;100.00;62369.91;4993178;28;20022;-66
2022/09/14 03:17:31;;;;;;;12.63;4.50;;;;;;;-144.48;100.00;62369.91;4991502;28;20038;-64
2022/09/14 03:19:56;;;;;;;15.88;4.55;;;;;;;-144.48;100.00;62369.91;4992069;28;20025;-66
2022/09/14 03:22:22;;;;;;;16.20;5.18;;;;;;;-144.48;100.00;62369.91;4991112;28;20038;-65
2022/09/14 03:24:47;;;;;;;14.00;5.00;;;;;;;-144.48;100.00;62369.91;4993324;28;20029;-66
2022/09/14 03:27:13;;;;;;;17.00;6.75;;;;;;;-144.48;100.00;62369.91;4990229;28;20546;-64
2022/09/14 03:29:38;;;;;;;26.40;10.00;;;;;;;-144.48;100.00;62369.91;4993121;28;20042;-65
2022/09/14 03:32:03;;;;;;;17.23;7.10;;;;;;;-144.48;100.00;62369.91;4992807;28;20448;-65
2022/09/14 03:34:29;;;;;;;11.75;5.20;;;;;;;-144.48;100.00;62369.91;4992315;28;20029;-66
2022/09/14 03:36:54;;;;;;;8.38;5.10;;;;;;;-144.48;100.00;62369.91;4991231;28;20058;-66
2022/09/14 03:39:19;;;;;;;10.40;3.60;;;;;;;-144.48;100.00;62369.91;4992068;28;20400;-64
2022/09/14 03:41:45;;;;;;;10.00;3.55;;;;;;;-144.48;100.00;62369.91;4991598;28;20106;-66
2022/09/14 03:44:10;;;;;;;6.53;3.20;;;;;;;-144.48;100.00;62369.91;4992375;28;20073;-64
2022/09/14 03:46:35;;;;;;;11.75;3.03;;;;;;;-144.48;100.00;62369.91;4991330;28;20349;-66
2022/09/14 03:49:01;;;;;;;6.47;2.75;;;;;;;-144.48;100.00;62369.91;4992084;28;20022;-66
2022/09/14 03:51:26;;;;;;;12.27;2.78;;;;;;;-144.48;100.00;62369.91;4990343;28;20165;-66
2022/09/14 03:53:52;;;;;;;8.43;2.63;;;;;;;-144.48;100.00;62369.91;4991942;28;20023;-66
2022/09/14 03:56:20;;;;;;;9.43;2.95;;;;;;;-144.48;100.00;62369.91;4991137;28;20029;-67
2022/09/14 03:58:47;;;;;;;13.15;4.30;;;;;;;-144.48;100.00;62369.91;4991650;28;20631;-68
2022/09/14 04:01:15;;;;;;;8.75;2.90;;;;;;;-144.48;100.00;62369.91;4991098;28;20053;-65
2022/09/14 04:03:41;;;;;;;10.57;3.10;;;;;;;-144.48;100.00;62369.91;4991345;28;20026;-66
2022/09/14 04:06:07;;;;;;;9.13;2.15;;;;;;;-144.48;100.00;62369.91;4989409;28;20034;-64
2022/09/14 04:08:37;;;;;;;8.93;2.92;;;;;;;-144.48;100.00;62369.91;4991012;28;20018;-64
2022/09/14 04:11:12;;;;;;;6.85;2.40;;;;;;;-144.48;100.00;62369.91;4991183;28;20023;-65
2022/09/14 04:13:38;;;;;;;8.25;2.35;;;;;;;-144.48;100.00;62369.91;4991642;28;20440;-67
2022/09/14 04:16:05;;;;;;;9.82;2.55;;;;;;;-144.48;100.00;62369.91;4990830;28;20467;-67
2022/09/14 04:18:31;;;;;;;8.98;2.45;;;;;;;-144.48;100.00;62369.91;4990757;28;20149;-66
2022/09/14 04:20:58;;;;;;;10.80;2.60;;;;;;;-144.48;100.00;62369.91;4989077;28;20030;-68
2022/09/14 04:23:24;;;;;;;7.57;2.20;;;;;;;-144.48;100.00;62369.91;4990661;28;20034;-65
2022/09/14 04:25:50;;;;;;;12.27;2.65;;;;;;;-144.48;100.00;62369.91;4989611;28;20022;-67
2022/09/14 04:28:16;;;;;;;10.98;2.58;;;;;;;-144.48;100.00;62369.91;4990184;28;20050;-66
2022/09/14 04:30:41;;;;;;;7.22;1.95;;;;;;;-144.48;100.00;62369.91;4990934;28;20054;-64
2022/09/14 04:33:07;;;;;;;10.85;2.25;;;;;;;-144.48;100.00;62369.91;4988503;23;20516;-69
2022/09/14 04:35:32;;;;;;;9.45;2.83;;;;;;;-144.48;100.00;62369.91;4970385;28;20571;-68
2022/09/14 04:37:57;;;;;;;10.82;2.45;;;;;;;-144.48;100.00;62369.91;4970360;28;20085;-71
2022/09/14 04:40:23;;;;;;;11.43;2.65;;;;;;;-144.48;100.00;62369.91;4971248;28;20666;-68
2022/09/14 04:42:48;;;;;;;6.53;2.20;;;;;;;-144.48;100.00;62369.91;4971110;28;20516;-69
2022/09/14 04:45:14;;;;;;;15.80;2.95;;;;;;;-144.48;100.00;62369.91;4971004;28;20054;-69
2022/09/14 04:47:39;;;;;;;8.30;2.15;;;;;;;-144.48;100.00;62369.91;4969319;28;20034;-70
2022/09/14 04:50:05;;;;;;;11.13;2.30;;;;;;;-144.48;100.00;62369.91;4967251;28;20022;-71
2022/09/14 04:52:30;;;;;;;9.15;2.85;;;;;;;-144.48;100.00;62369.91;4969555;28;20022;-71
2022/09/14 04:54:55;;;;;;;9.90;2.60;;;;;;;-144.48;100.00;62369.91;4970332;28;20027;-69
2022/09/14 04:57:21;;;;;;;10.02;2.50;;;;;;;-144.48;100.00;62369.91;4970213;28;20034;-70
2022/09/14 04:59:46;;;;;;;10.93;3.30;;;;;;;-144.48;100.00;62369.91;4970646;28;20512;-69
2022/09/14 05:02:11;;;;;;;13.15;3.08;;;;;;;-144.48;100.00;62369.91;4967528;28;20377;-68
2022/09/14 05:04:37;;;;;;;7.25;2.38;;;;;;;-144.48;100.00;62369.91;4962203;28;20065;-71
2022/09/14 05:07:02;;;;;;;16.67;3.17;;;;;;;-144.48;100.00;62369.91;4969028;28;20472;-69
2022/09/14 05:09:27;;;;;;;7.05;1.98;;;;;;;-144.48;100.00;62369.91;4959843;28;20035;-70
2022/09/14 05:11:53;;;;;;;18.05;5.00;;;;;;;-144.48;100.00;62369.91;4970971;28;20081;-70
2022/09/14 05:14:18;;;;;;;10.15;2.70;;;;;;;-144.48;100.00;62369.91;4970683;28;20452;-71
2022/09/14 05:16:44;;;;;;;15.15;2.13;;;;;;;-144.48;100.00;62369.91;4968893;28;20493;-72
2022/09/14 05:19:13;;;;;;;9.55;2.20;;;;;;;-144.48;100.00;62369.91;4965797;28;20106;-69
2022/09/14 05:21:38;;;;;;;9.13;2.67;;;;;;;-144.48;100.00;62369.91;4967334;28;20392;-70
2022/09/14 05:24:09;;;;;;;9.70;2.67;;;;;;;-144.48;100.00;62369.91;4967696;28;20038;-71
2022/09/14 05:26:34;;;;;;;10.77;2.55;;;;;;;-144.48;100.00;62369.91;4965533;28;20031;-71
2022/09/14 05:29:01;;;;;;;11.50;2.45;;;;;;;-144.48;100.00;62369.91;4970252;28;20551;-70
2022/09/14 05:31:27;;;;;;;10.63;2.45;;;;;;;-144.48;100.00;62369.91;4964354;28;20116;-72
2022/09/14 05:33:53;;;;;;;14.85;2.92;;;;;;;-144.48;100.00;62369.91;4969615;28;20127;-70
2022/09/14 05:36:18;;;;;;;13.18;2.60;;;;;;;-144.48;100.00;62369.91;4966760;28;20109;-70
2022/09/14 05:38:44;;;;;;;7.78;1.98;;;;;;;-144.48;100.00;62369.91;4970793;28;20038;-69
2022/09/14 05:41:11;;;;;;;16.02;2.47;;;;;;;-144.48;100.00;62369.91;4970060;28;20111;-70
2022/09/14 05:43:37;;;;;;;14.85;2.42;;;;;;;-144.48;100.00;62369.91;4970459;28;20031;-70
2022/09/14 05:46:04;;;;;;;13.73;2.38;;;;;;;-144.48;100.00;62369.91;4965910;28;20027;-72
2022/09/14 05:48:32;;;;;;;10.07;2.28;;;;;;;-144.48;100.00;62369.91;4963660;28;20440;-69
2022/09/14 05:51:10;;;;;;;7.75;2.10;;;;;;;-144.48;100.00;62369.91;4969403;28;20073;-73
2022/09/14 05:53:36;;;;;;;;;;;;;;;-144.48;100.00;62369.91;4969606;28;20027;-72
2022/09/14 05:56:04;;;;;;;12.73;2.47;;;;;;;-144.48;100.00;62369.91;4964366;28;20004;-69
2022/09/14 05:58:30;;;;;;;14.25;3.15;;;;;;;-144.48;100.00;62369.91;4968827;28;20169;-71
2022/09/14 06:00:56;;;;;;;6.10;1.98;;;;;;;-144.48;100.00;62369.91;4968486;28;20113;-69
2022/09/14 06:03:21;;;;;;;16.20;2.58;;;;;;;-144.48;100.00;62369.91;4970047;28;20033;-68
2022/09/14 06:05:47;;;;;;;10.82;2.10;;;;;;;-144.48;100.00;62369.91;4969202;28;20026;-71
2022/09/14 06:08:12;;;;;;;7.95;2.05;;;;;;;-144.48;100.00;62369.91;4968640;28;20027;-68
2022/09/14 06:10:38;;;;;;;6.95;2.35;;;;;;;-144.48;100.00;62369.91;4969684;28;20033;-71
2022/09/14 06:13:03;;;;;;;11.18;2.15;;;;;;;-144.48;100.00;62369.91;4970078;28;20109;-68
2022/09/14 06:15:28;;;;;;;9.40;2.70;;;;;;;-144.48;100.00;62369.91;4969894;28;20026;-70
2022/09/14 06:17:54;;;;;;;15.23;3.05;;;;;;;-144.48;100.00;62369.91;4968199;28;20027;-69
2022/09/14 06:20:19;;;;;;;10.80;2.03;;;;;;;-144.48;100.00;62369.91;4963004;28;20117;-69
2022/09/14 06:22:44;;;;;;;12.02;2.28;;;;;;;-144.48;100.00;62369.91;4967969;28;20034;-71
2022/09/14 06:25:10;;;;;;;14.88;2.22;;;;;;;-144.48;100.00;62369.91;4969843;28;20571;-69
2022/09/14 06:27:36;;;;;;;9.18;1.88;;;;;;;-144.48;100.00;62369.91;4968410;28;20035;-69
2022/09/14 06:30:02;;;;;;;22.77;3.08;;;;;;;-144.48;100.00;62369.91;4970430;28;20058;-68
2022/09/14 06:32:30;;;;;;;10.27;2.90;;;;;;;-144.48;100.00;62369.91;4967535;28;20039;-71
2022/09/14 06:34:55;;;;;;;16.55;2.80;;;;;;;-144.48;100.00;62369.91;4969069;28;20034;-71
2022/09/14 06:37:20;;;;;;;16.67;2.70;;;;;;;-144.48;100.00;62369.91;4967290;28;20035;-77
2022/09/14 06:39:45;;;;;;;20.02;2.38;;;;;;;-144.48;100.00;62369.91;4969085;28;20034;-72
2022/09/14 06:42:11;;;;;;;8.80;1.85;;;;;;;-144.48;100.00;62369.91;4970350;28;20048;-72
2022/09/14 06:44:37;;;;;;;10.50;1.85;;;;;;;-144.48;100.00;62369.91;4973181;28;20057;-71
2022/09/14 06:47:02;;;;;;;8.05;1.58;;;;;;;-144.48;100.00;62369.91;4972723;28;20026;-71
2022/09/14 06:49:28;;;;;;;4.38;1.40;;;;;;;-144.48;100.00;62369.91;4973987;28;20022;-72
2022/09/14 06:51:55;;;;;;;14.25;2.40;;;;;;;-144.48;100.00;62369.91;4972263;28;20568;-70
2022/09/14 06:54:20;;;;;;;11.27;2.50;;;;;;;-144.48;100.00;62369.91;4972764;28;20046;-71
2022/09/14 06:56:46;;;;;;;13.77;2.78;;;;;;;-144.48;100.00;62369.91;4971205;28;20511;-72
2022/09/14 06:59:14;;;;;;;8.45;2.25;;;;;;;-144.48;100.00;62369.91;4971322;28;20429;-70
2022/09/14 07:01:40;;;;;;;16.27;2.03;;;;;;;-144.48;100.00;62369.91;4972732;28;20027;-71
2022/09/14 07:04:05;;;;;;;14.43;2.45;;;;;;;-144.48;100.00;62369.91;4967563;28;20392;-70
2022/09/14 07:06:38;;;;;;;12.13;1.90;;;;;;;-144.48;100.00;62369.91;4971261;28;20027;-74
2022/09/14 07:09:04;;;;;;;13.85;1.88;;;;;;;-144.48;100.00;62369.91;4972779;28;20118;-73
2022/09/14 07:11:30;;;;;;;15.00;2.38;;;;;;;-144.48;100.00;62369.91;4973677;28;20046;-71
2022/09/14 07:13:57;;;;;;;12.05;2.15;;;;;;;-144.48;100.00;62369.91;4973002;28;20026;-71
2022/09/14 07:16:23;;;;;;;9.13;1.88;;;;;;;-144.48;100.00;62369.91;4973752;28;20050;-73
2022/09/14 07:18:52;;;;;;;10.52;2.33;;;;;;;-144.48;100.00;62369.91;4978193;28;20180;-74
2022/09/14 07:21:20;;;;;;;9.98;2.15;;;;;;;-144.48;100.00;62369.91;4967881;28;20205;-72
2022/09/14 07:23:47;;;;;;;10.13;2.60;;;;;;;-144.48;100.00;62369.91;4972905;28;20034;-73
2022/09/14 07:26:30;;;;;;;9.60;2.20;;;;;;;-144.48;100.00;62369.91;4960265;28;20026;-72
2022/09/14 07:28:58;;;;;;;12.02;2.30;;;;;;;-144.48;100.00;62369.91;4972681;28;20123;-70
2022/09/14 07:31:25;;;;;;;14.25;2.42;;;;;;;-144.48;100.00;62369.91;4972288;28;21001;-71
2022/09/14 07:33:53;;;;;;;13.00;2.95;;;;;;;-144.48;100.00;62369.91;4972554;28;20034;-71
2022/09/14 07:36:20;;;;;;;20.67;3.45;;;;;;;-144.48;100.00;62369.91;4971820;28;20026;-71
2022/09/14 07:38:45;;;;;;;15.30;3.20;;;;;;;-144.48;100.00;62369.91;4971945;28;20050;-69
2022/09/14 07:41:11;;;;;;;11.88;3.95;;;;;;;-144.48;100.00;62369.91;4972080;28;20045;-72
2022/09/14 07:43:36;;;;;;;16.92;3.80;;;;;;;-144.48;100.00;62369.91;4969093;28;20041;-73
2022/09/14 07:46:03;;;;;;;12.57;3.03;;;;;;;-144.48;100.00;62369.91;4970043;28;20056;-70
2022/09/14 07:48:30;;;;;;;15.68;2.80;;;;;;;-144.48;100.00;62369.91;4970768;28;20113;-72
2022/09/14 07:51:03;;;;;;;16.45;2.97;;;;;;;-144.48;100.00;62369.91;4969981;28;20069;-71
2022/09/14 07:53:29;;;;;;;8.82;3.33;;;;;;;-144.48;100.00;62369.91;4970375;28;20038;-71
2022/09/14 07:55:59;;;;;;;18.25;3.50;;;;;;;-144.48;100.00;62369.91;4971715;28;20026;-71
2022/09/14 07:58:24;;;;;;;12.55;3.40;;;;;;;-144.48;100.00;62369.91;4971031;28;20031;-69
2022/09/14 08:00:50;;;;;;;16.75;4.03;;;;;;;-144.48;100.00;62369.91;4971011;28;20035;-70
2022/09/14 08:03:15;;;;;;;10.32;3.17;;;;;;;-144.48;100.00;62369.91;4965898;28;20027;-73
2022/09/14 08:05:41;;;;;;;8.35;2.83;;;;;;;-144.48;100.00;62369.91;4966589;28;20378;-71
2022/09/14 08:08:06;;;;;;;14.80;3.30;;;;;;;-144.48;100.00;62369.91;4964525;28;20676;-72
2022/09/14 08:10:34;;;;;;;14.70;3.33;;;;;;;-144.48;100.00;62369.91;4966160;28;20093;-69
2022/09/14 08:12:59;;;;;;;9.82;2.67;;;;;;;-144.48;100.00;62369.91;4965469;28;20540;-71
2022/09/14 08:15:26;;;;;;;8.60;2.45;;;;;;;-144.48;100.00;62369.91;4967923;28;20106;-72
2022/09/14 08:17:51;;;;;;;8.10;2.35;;;;;;;-144.48;100.00;62369.91;4965250;28;20034;-70
2022/09/14 08:20:16;;;;;;;12.57;2.92;;;;;;;-144.48;100.00;62369.91;4970561;28;20030;-69
2022/09/14 08:22:43;;;;;;;10.30;2.70;;;;;;;-144.48;100.00;62369.91;4968533;28;20031;-73
2022/09/14 08:25:09;;;;;;;10.98;2.85;;;;;;;-144.48;100.00;62369.91;4970879;28;20090;-71
2022/09/14 08:27:35;;;;;;;16.60;2.72;;;;;;;-144.48;100.00;62369.91;4969862;28;20026;-68
2022/09/14 08:30:00;;;;;;;13.65;3.47;;;;;;;-144.48;100.00;62369.91;4967736;28;20046;-72
2022/09/14 08:32:25;;;;;;;8.80;2.80;;;;;;;-144.48;100.00;62369.91;4968898;28;20031;-71
2022/09/14 08:34:51;;;;;;;22.13;2.42;;;;;;;-144.48;100.00;62369.91;4969596;28;20472;-69
2022/09/14 08:37:17;;;;;;;11.60;2.65;;;;;;;-144.48;100.00;62369.91;4968512;28;20061;-69
2022/09/14 08:39:42;;;;;;;11.88;2.47;;;;;;;-144.48;100.00;62369.91;4970733;28;20070;-68
2022/09/14 08:42:14;;;;;;;11.45;2.58;;;;;;;-144.48;100.00;62369.91;4970461;28;20038;-70
2022/09/14 08:44:50;;;;;;;13.65;2.60;;;;;;;-144.48;100.00;62369.91;4970241;28;20031;-70
2022/09/14 08:47:22;;;;;;;14.07;2.28;;;;;;;-144.48;100.00;62369.91;4969771;28;20563;-73
2022/09/14 08:50:05;;;;;;;9.15;2.60;;;;;;;-144.48;100.00;62369.91;4969877;28;20034;-70
2022/09/14 08:52:35;;;;;;;9.10;2.83;;;;;;;-144.48;100.00;62369.91;4963621;28;20318;-69
2022/09/14 08:55:15;;;;;;;17.17;3.28;;;;;;;-144.48;100.00;62369.91;4969429;28;20022;-70
2022/09/14 08:57:53;;;;;;;11.95;2.08;;;;;;;-144.48;100.00;62369.91;4970440;28;20078;-69
2022/09/14 09:00:22;;;;;;;11.55;2.38;;;;;;;-144.48;100.00;62369.91;4963998;28;20026;-69
2022/09/14 09:03:09;;;;;;;11.43;2.30;;;;;;;-144.48;100.00;62369.91;4969514;28;20023;-71
2022/09/14 09:05:40;;;;;;;12.05;3.20;;;;;;;-144.48;100.00;62369.91;4959384;28;20034;-69
2022/09/14 09:08:12;;;;;;;14.57;1.88;;;;;;;-144.48;100.00;62369.91;4968874;28;20083;-71
2022/09/14 09:10:39;;;;;;;11.65;3.33;;;;;;;-144.48;100.00;62369.91;4966501;28;20094;-70
2022/09/14 09:13:08;;;;;;;13.38;2.03;;;;;;;-144.48;100.00;62369.91;4968378;28;20037;-69
2022/09/14 09:15:49;;;;;;;12.27;2.75;;;;;;;-144.48;100.00;62369.91;4965450;28;20610;-68
2022/09/14 09:18:40;;;;;;;13.50;2.22;;;;;;;-144.48;100.00;62369.91;4968284;28;20074;-72
2022/09/14 09:21:21;;;;;;;8.65;1.85;;;;;;;-144.48;100.00;62369.91;4967126;28;20027;-70
2022/09/14 09:23:47;;;;;;;9.27;1.90;;;;;;;-144.48;100.00;62369.91;4967486;28;20165;-72
2022/09/14 09:26:25;;;;;;;13.68;3.00;;;;;;;-144.48;100.00;62369.91;4951395;28;20158;-69
2022/09/14 09:28:53;;;;;;;10.60;2.15;;;;;;;-144.48;100.00;62369.91;4970147;28;20030;-72
2022/09/14 09:31:30;;;;;;;8.90;2.13;;;;;;;-144.48;100.00;62369.91;4952163;28;20033;-69
2022/09/14 09:33:56;;;;;;;16.30;2.08;;;;;;;-144.48;100.00;62369.91;4965665;28;20039;-70
2022/09/14 09:36:21;;;;;;;14.98;2.08;;;;;;;-144.48;100.00;62369.91;4967619;28;20038;-69
2022/09/14 09:38:46;;;;;;;14.52;2.13;;;;;;;-144.48;100.00;62369.91;4967317;28;20078;-70
2022/09/14 09:41:19;;;;;;;14.20;2.67;;;;;;;-144.48;100.00;62369.91;4968755;28;20592;-68
2022/09/14 09:44:01;;;;;;;10.80;2.13;;;;;;;-144.48;100.00;62369.91;4969868;28;20505;-70
2022/09/14 09:46:30;;;;;;;9.27;2.53;;;;;;;-144.48;100.00;62369.91;4961897;28;20060;-71
2022/09/14 09:48:56;;;;;;;12.32;2.25;;;;;;;-144.48;100.00;62369.91;4958173;28;20085;-70
2022/09/14 09:51:24;;;;;;;11.50;2.28;;;;;;;-144.48;100.00;62369.91;4968585;28;20042;-69
2022/09/14 09:54:18;;;;;;;11.02;2.38;;;;;;;-144.48;100.00;62369.91;4965899;28;20089;-69
2022/09/14 09:56:54;;;;;;;10.50;2.10;;;;;;;-144.48;100.00;62369.91;4967592;28;20029;-68
2022/09/14 09:59:34;;;;;;;5.22;2.05;;;;;;;-144.48;100.00;62369.91;4969389;28;20525;-68
2022/09/14 10:02:31;;;;;;;15.23;2.05;;;;;;;-144.48;100.00;62369.91;4961961;28;20122;-68
2022/09/14 10:05:16;;;;;;;10.15;2.35;;;;;;;-144.48;100.00;62369.91;4956292;28;20523;-68
2022/09/14 10:07:49;;;;;;;14.75;2.90;;;;;;;-144.48;100.00;62369.91;4967316;28;20573;-69
2022/09/14 10:10:17;;;;;;;18.25;2.30;;;;;;;-144.48;100.00;62369.91;4968874;28;20034;-72
2022/09/14 10:12:51;;;;;;;12.10;2.40;;;;;;;-144.48;100.00;62369.91;4969005;28;20014;-71
2022/09/14 10:15:24;;;;;;;9.45;2.42;;;;;;;-144.48;100.00;62369.91;4965501;28;20019;-72
2022/09/14 10:18:11;;;;;;;10.73;2.42;;;;;;;-144.48;100.00;62369.91;4968649;28;20113;-72
2022/09/14 10:20:41;;;;;;;6.95;1.63;;;;;;;-144.48;100.00;62369.91;4970402;28;20027;-74
2022/09/14 10:23:18;;;;;;;15.20;2.47;;;;;;;-144.48;100.00;62369.91;4971385;28;20030;-71
2022/09/14 10:25:45;;;;;;;12.73;2.55;;;;;;;-144.48;100.00;62369.91;4973298;28;20050;-73
2022/09/14 10:28:30;;;;;;;12.55;2.55;;;;;;;-144.48;100.00;62369.91;4967668;28;20037;-69
2022/09/14 10:31:14;;;;;;;18.08;2.20;;;;;;;-144.48;100.00;62369.91;4972709;28;20042;-70
2022/09/14 10:33:41;;;;;;;10.85;1.98;;;;;;;-144.48;100.00;62369.91;4993550;23;20145;-68
2022/09/14 10:36:09;;;;;;;11.60;2.50;;;;;;;-144.48;100.00;62369.91;4965894;28;20035;-66
2022/09/14 10:38:40;;;;;;;11.70;2.20;;;;;;;-144.48;100.00;62369.91;4971857;28;20031;-66
2022/09/14 10:41:30;;;;;;;12.00;2.40;;;;;;;-144.48;100.00;62369.91;4974602;28;20315;-67
2022/09/14 10:44:25;;;;;;;10.85;2.28;;;;;;;-144.48;100.00;62369.91;4970183;28;20037;-67
2022/09/14 10:47:08;;;;;;;10.65;2.28;;;;;;;-144.48;100.00;62369.91;4971432;28;20109;-66
2022/09/14 10:50:05;;;;;;;10.55;2.33;;;;;;;-144.48;100.00;62369.91;4975207;28;20030;-66
2022/09/14 10:52:36;;;;;;;10.18;2.63;;;;;;;-144.48;100.00;62369.91;4972981;28;20034;-67
2022/09/14 10:55:33;;;;;;;12.48;2.42;;;;;;;-144.48;100.00;62369.91;4972958;28;20513;-68
2022/09/14 10:58:19;;;;;;;21.98;2.97;;;;;;;-144.48;100.00;62369.91;4972739;28;20085;-68
2022/09/14 11:01:03;;;;;;;22.70;2.55;;;;;;;-144.48;100.00;62369.91;4969005;28;20026;-66
2022/09/14 11:03:41;;;;;;;16.73;2.72;;;;;;;-144.48;100.00;62369.91;4957178;28;20031;-66
2022/09/14 11:06:40;;;;;;;9.43;2.28;;;;;;;-144.48;100.00;62369.91;4967967;28;20038;-65
2022/09/14 11:09:19;;;;;;;7.88;1.83;;;;;;;-144.48;100.00;62369.91;4973252;28;20029;-65
2022/09/14 11:11:59;;;;;;;12.57;3.00;;;;;;;-144.48;100.00;62369.91;4973224;28;20102;-66
2022/09/14 11:14:28;;;;;;;9.90;3.08;;;;;;;-144.48;100.00;62369.91;4982692;28;20026;-68
2022/09/14 11:17:02;;;;;;;13.10;3.15;;;;;;;-144.48;100.00;62369.91;4971546;28;20031;-67
2022/09/14 11:20:02;;;;;;;10.50;2.00;;;;;;;-144.48;100.00;62369.91;4970770;28;20038;-68